sensor_id;sensor_type;location;lat;lon;timestamp;temperature;humidity
22645;DHT22;11489;50.834;6.752;2022-07-10T00:00:30;13.80;71.40
22645;DHT22;11489;50.834;6.752;2022-07-10T00:02:57;13.80;71.50
22645;DHT22;11489;50.834;6.752;2022-07-10T00:05:23;13.80;71.50
22645;DHT22;11489;50.834;6.752;2022-07-10T00:07:50;13.70;71.60
22645;DHT22;11489;50.834;6.752;2022-07-10T00:10:20;13.70;71.80
22645;DHT22;11489;50.834;6.752;2022-07-10T00:12:46;13.60;71.80
22645;DHT22;11489;50.834;6.752;2022-07-10T00:15:14;13.60;71.80
22645;DHT22;11489;50.834;6.752;2022-07-10T00:17:41;13.60;71.80
22645;DHT22;11489;50.834;6.752;2022-07-10T00:20:08;13.50;71.90
22645;DHT22;11489;50.834;6.752;2022-07-10T00:22:36;13.40;72.00
22645;DHT22;11489;50.834;6.752;2022-07-10T00:25:04;13.40;72.20
22645;DHT22;11489;50.834;6.752;2022-07-10T00:27:31;13.40;72.30
22645;DHT22;11489;50.834;6.752;2022-07-10T00:29:57;13.30;72.40
22645;DHT22;11489;50.834;6.752;2022-07-10T00:32:23;13.30;72.50
22645;DHT22;11489;50.834;6.752;2022-07-10T00:34:49;13.20;72.50
22645;DHT22;11489;50.834;6.752;2022-07-10T00:37:15;13.20;72.70
22645;DHT22;11489;50.834;6.752;2022-07-10T00:39:40;13.10;72.70
22645;DHT22;11489;50.834;6.752;2022-07-10T00:42:11;13.10;72.80
22645;DHT22;11489;50.834;6.752;2022-07-10T00:44:39;13.10;73.10
22645;DHT22;11489;50.834;6.752;2022-07-10T00:47:05;13.00;73.00
22645;DHT22;11489;50.834;6.752;2022-07-10T00:49:36;13.00;73.10
22645;DHT22;11489;50.834;6.752;2022-07-10T00:52:05;12.90;73.40
22645;DHT22;11489;50.834;6.752;2022-07-10T00:54:32;12.90;73.50
22645;DHT22;11489;50.834;6.752;2022-07-10T00:56:59;12.90;73.70
22645;DHT22;11489;50.834;6.752;2022-07-10T00:59:25;12.90;73.80
22645;DHT22;11489;50.834;6.752;2022-07-10T01:01:51;12.80;73.80
22645;DHT22;11489;50.834;6.752;2022-07-10T01:04:18;12.80;73.80
22645;DHT22;11489;50.834;6.752;2022-07-10T01:06:43;12.80;74.00
22645;DHT22;11489;50.834;6.752;2022-07-10T01:09:09;12.80;74.10
22645;DHT22;11489;50.834;6.752;2022-07-10T01:11:36;12.80;74.30
22645;DHT22;11489;50.834;6.752;2022-07-10T01:14:03;12.70;74.40
22645;DHT22;11489;50.834;6.752;2022-07-10T01:16:29;12.70;74.50
22645;DHT22;11489;50.834;6.752;2022-07-10T01:18:56;12.70;74.70
22645;DHT22;11489;50.834;6.752;2022-07-10T01:21:32;12.80;74.80
22645;DHT22;11489;50.834;6.752;2022-07-10T01:23:59;12.80;75.20
22645;DHT22;11489;50.834;6.752;2022-07-10T01:26:25;12.70;75.00
22645;DHT22;11489;50.834;6.752;2022-07-10T01:28:53;12.80;75.80
22645;DHT22;11489;50.834;6.752;2022-07-10T01:31:20;12.80;75.20
22645;DHT22;11489;50.834;6.752;2022-07-10T01:33:49;12.80;75.20
22645;DHT22;11489;50.834;6.752;2022-07-10T01:36:16;12.80;75.40
22645;DHT22;11489;50.834;6.752;2022-07-10T01:38:42;12.80;75.40
22645;DHT22;11489;50.834;6.752;2022-07-10T01:41:08;12.90;75.50
22645;DHT22;11489;50.834;6.752;2022-07-10T01:43:37;12.90;75.50
22645;DHT22;11489;50.834;6.752;2022-07-10T01:46:04;12.80;75.60
22645;DHT22;11489;50.834;6.752;2022-07-10T01:48:30;12.90;75.70
22645;DHT22;11489;50.834;6.752;2022-07-10T01:50:56;12.90;75.70
22645;DHT22;11489;50.834;6.752;2022-07-10T01:53:22;13.00;75.80
22645;DHT22;11489;50.834;6.752;2022-07-10T01:55:47;13.00;75.80
22645;DHT22;11489;50.834;6.752;2022-07-10T01:58:13;13.00;75.90
22645;DHT22;11489;50.834;6.752;2022-07-10T02:00:39;13.00;75.80
22645;DHT22;11489;50.834;6.752;2022-07-10T02:03:04;13.00;75.80
22645;DHT22;11489;50.834;6.752;2022-07-10T02:05:49;13.00;75.80
22645;DHT22;11489;50.834;6.752;2022-07-10T02:08:14;13.00;75.80
22645;DHT22;11489;50.834;6.752;2022-07-10T02:10:40;13.00;75.90
22645;DHT22;11489;50.834;6.752;2022-07-10T02:13:06;13.00;76.00
22645;DHT22;11489;50.834;6.752;2022-07-10T02:15:31;13.00;76.00
22645;DHT22;11489;50.834;6.752;2022-07-10T02:17:57;13.00;76.00
22645;DHT22;11489;50.834;6.752;2022-07-10T02:20:23;13.00;76.20
22645;DHT22;11489;50.834;6.752;2022-07-10T02:22:48;13.00;76.30
22645;DHT22;11489;50.834;6.752;2022-07-10T02:25:14;13.00;76.50
22645;DHT22;11489;50.834;6.752;2022-07-10T02:27:39;13.00;76.50
22645;DHT22;11489;50.834;6.752;2022-07-10T02:30:06;13.10;76.70
22645;DHT22;11489;50.834;6.752;2022-07-10T02:32:31;13.10;76.80
22645;DHT22;11489;50.834;6.752;2022-07-10T02:34:57;13.10;76.80
22645;DHT22;11489;50.834;6.752;2022-07-10T02:37:23;13.10;76.80
22645;DHT22;11489;50.834;6.752;2022-07-10T02:39:48;13.10;76.90
22645;DHT22;11489;50.834;6.752;2022-07-10T02:42:14;13.10;76.90
22645;DHT22;11489;50.834;6.752;2022-07-10T02:44:40;13.10;76.90
22645;DHT22;11489;50.834;6.752;2022-07-10T02:47:05;13.20;77.00
22645;DHT22;11489;50.834;6.752;2022-07-10T02:49:31;13.10;76.90
22645;DHT22;11489;50.834;6.752;2022-07-10T02:51:56;13.20;77.00
22645;DHT22;11489;50.834;6.752;2022-07-10T02:54:23;13.20;76.90
22645;DHT22;11489;50.834;6.752;2022-07-10T02:56:50;13.20;77.00
22645;DHT22;11489;50.834;6.752;2022-07-10T02:59:16;13.20;76.90
22645;DHT22;11489;50.834;6.752;2022-07-10T03:01:42;13.20;77.00
22645;DHT22;11489;50.834;6.752;2022-07-10T03:04:08;13.20;77.00
22645;DHT22;11489;50.834;6.752;2022-07-10T03:06:33;13.20;77.10
22645;DHT22;11489;50.834;6.752;2022-07-10T03:08:59;13.20;77.20
22645;DHT22;11489;50.834;6.752;2022-07-10T03:11:24;13.20;77.30
22645;DHT22;11489;50.834;6.752;2022-07-10T03:13:50;13.10;77.30
22645;DHT22;11489;50.834;6.752;2022-07-10T03:16:16;13.10;77.30
22645;DHT22;11489;50.834;6.752;2022-07-10T03:18:41;13.10;77.40
22645;DHT22;11489;50.834;6.752;2022-07-10T03:21:07;13.10;77.50
22645;DHT22;11489;50.834;6.752;2022-07-10T03:23:33;13.10;77.50
22645;DHT22;11489;50.834;6.752;2022-07-10T03:25:58;13.10;77.50
22645;DHT22;11489;50.834;6.752;2022-07-10T03:28:24;13.10;77.50
22645;DHT22;11489;50.834;6.752;2022-07-10T03:30:50;13.10;77.60
22645;DHT22;11489;50.834;6.752;2022-07-10T03:33:16;13.10;77.60
22645;DHT22;11489;50.834;6.752;2022-07-10T03:35:41;13.10;77.70
22645;DHT22;11489;50.834;6.752;2022-07-10T03:38:07;13.10;77.60
22645;DHT22;11489;50.834;6.752;2022-07-10T03:40:33;13.10;77.60
22645;DHT22;11489;50.834;6.752;2022-07-10T03:42:59;13.10;77.50
22645;DHT22;11489;50.834;6.752;2022-07-10T03:45:24;13.10;77.50
22645;DHT22;11489;50.834;6.752;2022-07-10T03:47:50;13.00;77.50
22645;DHT22;11489;50.834;6.752;2022-07-10T03:50:16;13.00;77.50
22645;DHT22;11489;50.834;6.752;2022-07-10T03:52:41;13.00;77.60
22645;DHT22;11489;50.834;6.752;2022-07-10T03:55:07;13.00;77.60
22645;DHT22;11489;50.834;6.752;2022-07-10T03:57:33;13.00;77.70
22645;DHT22;11489;50.834;6.752;2022-07-10T04:00:17;12.90;77.80
22645;DHT22;11489;50.834;6.752;2022-07-10T04:02:43;12.90;77.90
22645;DHT22;11489;50.834;6.752;2022-07-10T04:05:09;12.90;78.00
22645;DHT22;11489;50.834;6.752;2022-07-10T04:07:35;12.90;78.10
22645;DHT22;11489;50.834;6.752;2022-07-10T04:10:02;12.90;78.20
22645;DHT22;11489;50.834;6.752;2022-07-10T04:12:28;12.90;78.30
22645;DHT22;11489;50.834;6.752;2022-07-10T04:14:54;12.90;78.30
22645;DHT22;11489;50.834;6.752;2022-07-10T04:17:20;12.90;78.40
22645;DHT22;11489;50.834;6.752;2022-07-10T04:19:45;12.90;78.50
22645;DHT22;11489;50.834;6.752;2022-07-10T04:22:12;13.00;78.60
22645;DHT22;11489;50.834;6.752;2022-07-10T04:24:38;13.00;78.60
22645;DHT22;11489;50.834;6.752;2022-07-10T04:27:04;13.00;78.80
22645;DHT22;11489;50.834;6.752;2022-07-10T04:29:30;13.00;78.90
22645;DHT22;11489;50.834;6.752;2022-07-10T04:31:56;13.00;78.90
22645;DHT22;11489;50.834;6.752;2022-07-10T04:34:22;13.10;78.90
22645;DHT22;11489;50.834;6.752;2022-07-10T04:36:48;13.10;78.80
22645;DHT22;11489;50.834;6.752;2022-07-10T04:39:13;13.20;78.80
22645;DHT22;11489;50.834;6.752;2022-07-10T04:41:39;13.20;78.90
22645;DHT22;11489;50.834;6.752;2022-07-10T04:44:05;13.20;79.00
22645;DHT22;11489;50.834;6.752;2022-07-10T04:46:30;13.30;79.00
22645;DHT22;11489;50.834;6.752;2022-07-10T04:48:56;13.40;79.10
22645;DHT22;11489;50.834;6.752;2022-07-10T04:51:22;13.40;79.10
22645;DHT22;11489;50.834;6.752;2022-07-10T04:53:49;13.50;80.00
22645;DHT22;11489;50.834;6.752;2022-07-10T04:56:15;13.60;79.30
22645;DHT22;11489;50.834;6.752;2022-07-10T04:58:40;13.60;79.30
22645;DHT22;11489;50.834;6.752;2022-07-10T05:01:06;13.70;79.50
22645;DHT22;11489;50.834;6.752;2022-07-10T05:03:32;13.80;79.60
22645;DHT22;11489;50.834;6.752;2022-07-10T05:05:58;13.90;79.80
22645;DHT22;11489;50.834;6.752;2022-07-10T05:08:23;14.10;80.00
22645;DHT22;11489;50.834;6.752;2022-07-10T05:10:49;14.20;80.00
22645;DHT22;11489;50.834;6.752;2022-07-10T05:13:15;14.40;80.20
22645;DHT22;11489;50.834;6.752;2022-07-10T05:15:40;14.50;80.20
22645;DHT22;11489;50.834;6.752;2022-07-10T05:18:06;14.70;80.20
22645;DHT22;11489;50.834;6.752;2022-07-10T05:20:31;14.90;79.90
22645;DHT22;11489;50.834;6.752;2022-07-10T05:22:58;15.10;79.80
22645;DHT22;11489;50.834;6.752;2022-07-10T05:25:24;15.30;79.50
22645;DHT22;11489;50.834;6.752;2022-07-10T05:27:52;15.40;79.00
22645;DHT22;11489;50.834;6.752;2022-07-10T05:30:18;15.50;79.20
22645;DHT22;11489;50.834;6.752;2022-07-10T05:32:44;15.60;78.10
22645;DHT22;11489;50.834;6.752;2022-07-10T05:35:14;15.70;77.80
22645;DHT22;11489;50.834;6.752;2022-07-10T05:37:39;15.80;77.80
22645;DHT22;11489;50.834;6.752;2022-07-10T05:40:05;15.90;77.70
22645;DHT22;11489;50.834;6.752;2022-07-10T05:42:32;16.00;77.80
22645;DHT22;11489;50.834;6.752;2022-07-10T05:44:57;16.20;77.90
22645;DHT22;11489;50.834;6.752;2022-07-10T05:47:23;16.30;77.70
22645;DHT22;11489;50.834;6.752;2022-07-10T05:49:49;16.40;77.00
22645;DHT22;11489;50.834;6.752;2022-07-10T05:52:14;16.50;76.50
22645;DHT22;11489;50.834;6.752;2022-07-10T05:54:40;16.50;75.80
22645;DHT22;11489;50.834;6.752;2022-07-10T05:57:06;16.50;75.70
22645;DHT22;11489;50.834;6.752;2022-07-10T05:59:34;16.50;75.50
22645;DHT22;11489;50.834;6.752;2022-07-10T06:02:01;16.60;75.60
22645;DHT22;11489;50.834;6.752;2022-07-10T06:04:27;16.60;74.90
22645;DHT22;11489;50.834;6.752;2022-07-10T06:06:52;16.60;75.00
22645;DHT22;11489;50.834;6.752;2022-07-10T06:09:18;16.60;75.00
22645;DHT22;11489;50.834;6.752;2022-07-10T06:11:44;16.60;74.80
22645;DHT22;11489;50.834;6.752;2022-07-10T06:14:12;16.60;74.70
22645;DHT22;11489;50.834;6.752;2022-07-10T06:16:37;16.60;74.60
22645;DHT22;11489;50.834;6.752;2022-07-10T06:19:03;16.60;74.70
22645;DHT22;11489;50.834;6.752;2022-07-10T06:21:29;16.60;74.70
22645;DHT22;11489;50.834;6.752;2022-07-10T06:23:55;16.60;74.30
22645;DHT22;11489;50.834;6.752;2022-07-10T06:26:20;16.60;74.00
22645;DHT22;11489;50.834;6.752;2022-07-10T06:28:46;16.70;74.40
22645;DHT22;11489;50.834;6.752;2022-07-10T06:31:12;16.70;74.70
22645;DHT22;11489;50.834;6.752;2022-07-10T06:33:38;16.70;74.90
22645;DHT22;11489;50.834;6.752;2022-07-10T06:36:04;16.80;74.80
22645;DHT22;11489;50.834;6.752;2022-07-10T06:38:29;16.80;75.00
22645;DHT22;11489;50.834;6.752;2022-07-10T06:40:55;16.90;75.00
22645;DHT22;11489;50.834;6.752;2022-07-10T06:43:21;17.00;74.80
22645;DHT22;11489;50.834;6.752;2022-07-10T06:45:47;17.10;74.70
22645;DHT22;11489;50.834;6.752;2022-07-10T06:48:13;17.10;74.40
22645;DHT22;11489;50.834;6.752;2022-07-10T06:50:40;17.30;74.40
22645;DHT22;11489;50.834;6.752;2022-07-10T06:53:06;17.30;74.10
22645;DHT22;11489;50.834;6.752;2022-07-10T06:55:32;17.30;73.10
22645;DHT22;11489;50.834;6.752;2022-07-10T06:57:58;17.40;72.50
22645;DHT22;11489;50.834;6.752;2022-07-10T07:00:24;17.40;72.40
22645;DHT22;11489;50.834;6.752;2022-07-10T07:02:50;17.30;72.30
22645;DHT22;11489;50.834;6.752;2022-07-10T07:05:16;17.30;72.50
22645;DHT22;11489;50.834;6.752;2022-07-10T07:07:41;17.30;72.10
22645;DHT22;11489;50.834;6.752;2022-07-10T07:10:08;17.30;72.30
22645;DHT22;11489;50.834;6.752;2022-07-10T07:12:34;17.20;72.30
22645;DHT22;11489;50.834;6.752;2022-07-10T07:14:59;17.20;72.20
22645;DHT22;11489;50.834;6.752;2022-07-10T07:17:25;17.10;72.00
22645;DHT22;11489;50.834;6.752;2022-07-10T07:19:59;17.10;71.90
22645;DHT22;11489;50.834;6.752;2022-07-10T07:22:43;17.00;71.80
22645;DHT22;11489;50.834;6.752;2022-07-10T07:25:27;16.90;71.70
22645;DHT22;11489;50.834;6.752;2022-07-10T07:27:53;16.80;71.70
22645;DHT22;11489;50.834;6.752;2022-07-10T07:30:19;16.80;72.00
22645;DHT22;11489;50.834;6.752;2022-07-10T07:32:46;16.70;72.00
22645;DHT22;11489;50.834;6.752;2022-07-10T07:35:15;16.70;72.10
22645;DHT22;11489;50.834;6.752;2022-07-10T07:37:48;16.60;72.30
22645;DHT22;11489;50.834;6.752;2022-07-10T07:40:19;16.60;72.70
22645;DHT22;11489;50.834;6.752;2022-07-10T07:42:46;16.60;72.80
22645;DHT22;11489;50.834;6.752;2022-07-10T07:45:12;16.70;73.20
22645;DHT22;11489;50.834;6.752;2022-07-10T07:50:15;16.80;73.00
22645;DHT22;11489;50.834;6.752;2022-07-10T07:52:41;16.80;73.60
22645;DHT22;11489;50.834;6.752;2022-07-10T07:55:08;16.90;73.40
22645;DHT22;11489;50.834;6.752;2022-07-10T07:57:34;17.00;73.20
22645;DHT22;11489;50.834;6.752;2022-07-10T07:59:59;17.00;73.20
22645;DHT22;11489;50.834;6.752;2022-07-10T08:02:25;17.10;73.40
22645;DHT22;11489;50.834;6.752;2022-07-10T08:04:50;17.20;73.80
22645;DHT22;11489;50.834;6.752;2022-07-10T08:07:16;17.30;73.90
22645;DHT22;11489;50.834;6.752;2022-07-10T08:09:42;17.50;73.90
22645;DHT22;11489;50.834;6.752;2022-07-10T08:12:10;17.60;73.50
22645;DHT22;11489;50.834;6.752;2022-07-10T08:14:36;17.70;73.40
22645;DHT22;11489;50.834;6.752;2022-07-10T08:17:02;17.90;71.70
22645;DHT22;11489;50.834;6.752;2022-07-10T08:19:28;17.90;72.00
22645;DHT22;11489;50.834;6.752;2022-07-10T08:21:54;18.00;72.40
22645;DHT22;11489;50.834;6.752;2022-07-10T08:24:20;18.10;72.30
22645;DHT22;11489;50.834;6.752;2022-07-10T08:26:45;18.30;72.40
22645;DHT22;11489;50.834;6.752;2022-07-10T08:29:11;18.40;71.40
22645;DHT22;11489;50.834;6.752;2022-07-10T08:31:36;18.50;71.40
22645;DHT22;11489;50.834;6.752;2022-07-10T08:34:02;18.70;71.40
22645;DHT22;11489;50.834;6.752;2022-07-10T08:36:28;18.70;70.50
22645;DHT22;11489;50.834;6.752;2022-07-10T08:38:53;18.80;69.60
22645;DHT22;11489;50.834;6.752;2022-07-10T08:41:24;18.80;69.30
22645;DHT22;11489;50.834;6.752;2022-07-10T08:43:50;18.80;68.70
22645;DHT22;11489;50.834;6.752;2022-07-10T08:46:17;18.80;68.80
22645;DHT22;11489;50.834;6.752;2022-07-10T08:48:47;18.70;68.60
22645;DHT22;11489;50.834;6.752;2022-07-10T08:51:18;18.70;68.00
22645;DHT22;11489;50.834;6.752;2022-07-10T08:53:46;18.60;67.60
22645;DHT22;11489;50.834;6.752;2022-07-10T08:56:15;18.60;67.90
22645;DHT22;11489;50.834;6.752;2022-07-10T08:58:42;18.50;68.30
22645;DHT22;11489;50.834;6.752;2022-07-10T09:01:08;18.50;68.40
22645;DHT22;11489;50.834;6.752;2022-07-10T09:03:33;18.50;68.30
22645;DHT22;11489;50.834;6.752;2022-07-10T09:05:59;18.60;69.30
22645;DHT22;11489;50.834;6.752;2022-07-10T09:08:27;18.70;69.60
22645;DHT22;11489;50.834;6.752;2022-07-10T09:11:17;18.80;68.90
22645;DHT22;11489;50.834;6.752;2022-07-10T09:13:50;18.90;67.70
22645;DHT22;11489;50.834;6.752;2022-07-10T09:16:27;19.00;68.00
22645;DHT22;11489;50.834;6.752;2022-07-10T09:18:53;19.10;68.10
22645;DHT22;11489;50.834;6.752;2022-07-10T09:21:20;19.10;68.50
22645;DHT22;11489;50.834;6.752;2022-07-10T09:23:46;19.20;68.50
22645;DHT22;11489;50.834;6.752;2022-07-10T09:26:12;19.30;68.50
22645;DHT22;11489;50.834;6.752;2022-07-10T09:28:38;19.40;68.20
22645;DHT22;11489;50.834;6.752;2022-07-10T09:31:04;19.40;67.10
22645;DHT22;11489;50.834;6.752;2022-07-10T09:33:31;19.40;66.90
22645;DHT22;11489;50.834;6.752;2022-07-10T09:36:11;19.40;67.10
22645;DHT22;11489;50.834;6.752;2022-07-10T09:41:15;19.50;67.60
22645;DHT22;11489;50.834;6.752;2022-07-10T09:43:57;19.50;67.10
22645;DHT22;11489;50.834;6.752;2022-07-10T09:49:11;19.70;67.60
22645;DHT22;11489;50.834;6.752;2022-07-10T09:51:42;19.80;67.60
22645;DHT22;11489;50.834;6.752;2022-07-10T09:54:09;19.90;67.50
22645;DHT22;11489;50.834;6.752;2022-07-10T09:56:50;20.10;67.80
22645;DHT22;11489;50.834;6.752;2022-07-10T09:59:21;20.20;65.80
22645;DHT22;11489;50.834;6.752;2022-07-10T10:01:51;20.20;65.90
22645;DHT22;11489;50.834;6.752;2022-07-10T10:04:19;20.20;64.70
22645;DHT22;11489;50.834;6.752;2022-07-10T10:06:47;20.10;65.40
22645;DHT22;11489;50.834;6.752;2022-07-10T10:09:26;20.10;66.10
22645;DHT22;11489;50.834;6.752;2022-07-10T10:12:02;20.10;65.00
22645;DHT22;11489;50.834;6.752;2022-07-10T10:14:31;20.10;64.50
22645;DHT22;11489;50.834;6.752;2022-07-10T10:16:58;20.00;63.80
22645;DHT22;11489;50.834;6.752;2022-07-10T10:19:26;19.90;63.90
22645;DHT22;11489;50.834;6.752;2022-07-10T10:22:12;19.80;64.50
22645;DHT22;11489;50.834;6.752;2022-07-10T10:24:39;19.70;64.80
22645;DHT22;11489;50.834;6.752;2022-07-10T10:27:05;19.70;64.90
22645;DHT22;11489;50.834;6.752;2022-07-10T10:29:33;19.60;64.30
22645;DHT22;11489;50.834;6.752;2022-07-10T10:32:01;19.50;64.60
22645;DHT22;11489;50.834;6.752;2022-07-10T10:34:46;19.40;64.60
22645;DHT22;11489;50.834;6.752;2022-07-10T10:39:56;19.20;65.50
22645;DHT22;11489;50.834;6.752;2022-07-10T10:42:41;19.10;65.90
22645;DHT22;11489;50.834;6.752;2022-07-10T10:45:31;19.00;65.70
22645;DHT22;11489;50.834;6.752;2022-07-10T10:50:55;18.90;66.00
22645;DHT22;11489;50.834;6.752;2022-07-10T10:53:27;18.90;65.40
22645;DHT22;11489;50.834;6.752;2022-07-10T11:01:24;19.10;69.00
22645;DHT22;11489;50.834;6.752;2022-07-10T11:14:31;19.90;65.40
22645;DHT22;11489;50.834;6.752;2022-07-10T11:16:57;19.90;66.00
22645;DHT22;11489;50.834;6.752;2022-07-10T11:19:33;19.90;65.60
22645;DHT22;11489;50.834;6.752;2022-07-10T11:28:04;20.20;65.40
22645;DHT22;11489;50.834;6.752;2022-07-10T11:30:52;20.40;65.70
22645;DHT22;11489;50.834;6.752;2022-07-10T11:33:20;20.50;65.10
22645;DHT22;11489;50.834;6.752;2022-07-10T11:35:51;20.50;64.90
22645;DHT22;11489;50.834;6.752;2022-07-10T11:38:22;20.60;64.60
22645;DHT22;11489;50.834;6.752;2022-07-10T11:40:49;20.50;64.00
22645;DHT22;11489;50.834;6.752;2022-07-10T11:43:16;20.50;64.30
22645;DHT22;11489;50.834;6.752;2022-07-10T11:45:47;20.40;64.10
22645;DHT22;11489;50.834;6.752;2022-07-10T11:48:18;20.30;63.60
22645;DHT22;11489;50.834;6.752;2022-07-10T11:50:44;20.20;63.60
22645;DHT22;11489;50.834;6.752;2022-07-10T11:53:10;20.00;64.90
22645;DHT22;11489;50.834;6.752;2022-07-10T11:55:37;19.90;64.30
22645;DHT22;11489;50.834;6.752;2022-07-10T11:58:16;19.90;64.80
22645;DHT22;11489;50.834;6.752;2022-07-10T12:00:42;19.80;64.70
22645;DHT22;11489;50.834;6.752;2022-07-10T12:03:18;19.80;65.40
22645;DHT22;11489;50.834;6.752;2022-07-10T12:05:44;19.80;65.20
22645;DHT22;11489;50.834;6.752;2022-07-10T12:08:10;19.80;65.30
22645;DHT22;11489;50.834;6.752;2022-07-10T12:10:36;19.80;65.10
22645;DHT22;11489;50.834;6.752;2022-07-10T12:13:06;19.70;65.00
22645;DHT22;11489;50.834;6.752;2022-07-10T12:15:37;19.70;64.80
22645;DHT22;11489;50.834;6.752;2022-07-10T12:18:05;19.60;65.10
22645;DHT22;11489;50.834;6.752;2022-07-10T12:20:31;19.60;65.50
22645;DHT22;11489;50.834;6.752;2022-07-10T12:22:57;19.50;65.80
22645;DHT22;11489;50.834;6.752;2022-07-10T12:25:23;19.50;66.00
22645;DHT22;11489;50.834;6.752;2022-07-10T12:27:58;19.50;66.10
22645;DHT22;11489;50.834;6.752;2022-07-10T12:30:39;19.50;65.80
22645;DHT22;11489;50.834;6.752;2022-07-10T12:33:09;19.50;65.60
22645;DHT22;11489;50.834;6.752;2022-07-10T12:35:49;19.50;65.60
22645;DHT22;11489;50.834;6.752;2022-07-10T12:38:24;19.50;65.10
22645;DHT22;11489;50.834;6.752;2022-07-10T12:40:50;19.50;65.80
22645;DHT22;11489;50.834;6.752;2022-07-10T12:43:26;19.40;66.00
22645;DHT22;11489;50.834;6.752;2022-07-10T12:46:13;19.40;65.70
22645;DHT22;11489;50.834;6.752;2022-07-10T12:51:34;19.50;65.80
22645;DHT22;11489;50.834;6.752;2022-07-10T12:54:07;19.60;66.90
22645;DHT22;11489;50.834;6.752;2022-07-10T12:56:34;19.70;66.50
22645;DHT22;11489;50.834;6.752;2022-07-10T12:59:03;19.70;66.10
22645;DHT22;11489;50.834;6.752;2022-07-10T13:01:39;19.70;65.90
22645;DHT22;11489;50.834;6.752;2022-07-10T13:04:05;19.70;66.00
22645;DHT22;11489;50.834;6.752;2022-07-10T13:06:32;19.60;66.00
22645;DHT22;11489;50.834;6.752;2022-07-10T13:08:58;19.60;65.80
22645;DHT22;11489;50.834;6.752;2022-07-10T13:11:24;19.50;65.80
22645;DHT22;11489;50.834;6.752;2022-07-10T13:13:50;19.50;66.10
22645;DHT22;11489;50.834;6.752;2022-07-10T13:16:17;19.50;66.30
22645;DHT22;11489;50.834;6.752;2022-07-10T13:18:43;19.50;66.20
22645;DHT22;11489;50.834;6.752;2022-07-10T13:21:11;19.50;66.10
22645;DHT22;11489;50.834;6.752;2022-07-10T13:23:38;19.50;66.10
22645;DHT22;11489;50.834;6.752;2022-07-10T13:26:04;19.40;66.10
22645;DHT22;11489;50.834;6.752;2022-07-10T13:28:32;19.30;66.00
22645;DHT22;11489;50.834;6.752;2022-07-10T13:30:58;19.30;66.00
22645;DHT22;11489;50.834;6.752;2022-07-10T13:33:24;19.20;65.60
22645;DHT22;11489;50.834;6.752;2022-07-10T13:35:51;19.10;65.90
22645;DHT22;11489;50.834;6.752;2022-07-10T13:38:17;19.00;66.30
22645;DHT22;11489;50.834;6.752;2022-07-10T13:40:44;18.90;66.70
22645;DHT22;11489;50.834;6.752;2022-07-10T13:43:11;18.90;66.80
22645;DHT22;11489;50.834;6.752;2022-07-10T13:45:38;18.80;67.20
22645;DHT22;11489;50.834;6.752;2022-07-10T13:48:13;18.80;67.60
22645;DHT22;11489;50.834;6.752;2022-07-10T13:50:40;18.90;68.10
22645;DHT22;11489;50.834;6.752;2022-07-10T13:53:06;19.00;68.60
22645;DHT22;11489;50.834;6.752;2022-07-10T13:55:35;19.10;68.90
22645;DHT22;11489;50.834;6.752;2022-07-10T13:58:01;19.30;69.10
22645;DHT22;11489;50.834;6.752;2022-07-10T14:00:28;19.50;69.40
22645;DHT22;11489;50.834;6.752;2022-07-10T14:02:53;19.70;69.80
22645;DHT22;11489;50.834;6.752;2022-07-10T14:05:22;19.80;68.50
22645;DHT22;11489;50.834;6.752;2022-07-10T14:07:48;20.10;68.60
22645;DHT22;11489;50.834;6.752;2022-07-10T14:10:14;20.30;68.50
22645;DHT22;11489;50.834;6.752;2022-07-10T14:12:40;20.50;68.40
22645;DHT22;11489;50.834;6.752;2022-07-10T14:15:07;20.70;67.90
22645;DHT22;11489;50.834;6.752;2022-07-10T14:17:33;20.90;67.10
22645;DHT22;11489;50.834;6.752;2022-07-10T14:19:59;21.10;66.60
22645;DHT22;11489;50.834;6.752;2022-07-10T14:22:24;21.10;64.20
22645;DHT22;11489;50.834;6.752;2022-07-10T14:24:50;21.10;64.50
22645;DHT22;11489;50.834;6.752;2022-07-10T14:27:17;21.10;64.30
22645;DHT22;11489;50.834;6.752;2022-07-10T14:29:43;21.10;64.20
22645;DHT22;11489;50.834;6.752;2022-07-10T14:32:09;21.10;63.80
22645;DHT22;11489;50.834;6.752;2022-07-10T14:34:34;21.10;64.20
22645;DHT22;11489;50.834;6.752;2022-07-10T14:37:01;21.10;64.90
22645;DHT22;11489;50.834;6.752;2022-07-10T14:39:27;21.20;65.40
22645;DHT22;11489;50.834;6.752;2022-07-10T14:41:52;21.30;65.60
22645;DHT22;11489;50.834;6.752;2022-07-10T14:44:18;21.50;65.50
22645;DHT22;11489;50.834;6.752;2022-07-10T14:46:44;21.60;64.80
22645;DHT22;11489;50.834;6.752;2022-07-10T14:49:10;21.70;64.10
22645;DHT22;11489;50.834;6.752;2022-07-10T14:51:35;21.70;63.60
22645;DHT22;11489;50.834;6.752;2022-07-10T14:54:02;21.70;63.40
22645;DHT22;11489;50.834;6.752;2022-07-10T14:56:28;21.60;63.40
22645;DHT22;11489;50.834;6.752;2022-07-10T14:58:54;21.60;63.30
22645;DHT22;11489;50.834;6.752;2022-07-10T15:01:20;21.60;63.10
22645;DHT22;11489;50.834;6.752;2022-07-10T15:03:46;21.50;62.70
22645;DHT22;11489;50.834;6.752;2022-07-10T15:06:12;21.50;63.00
22645;DHT22;11489;50.834;6.752;2022-07-10T15:08:38;21.60;63.60
22645;DHT22;11489;50.834;6.752;2022-07-10T15:11:03;21.60;63.30
22645;DHT22;11489;50.834;6.752;2022-07-10T15:13:30;21.70;62.70
22645;DHT22;11489;50.834;6.752;2022-07-10T15:15:56;21.70;62.70
22645;DHT22;11489;50.834;6.752;2022-07-10T15:18:22;21.70;62.30
22645;DHT22;11489;50.834;6.752;2022-07-10T15:20:48;21.60;62.40
22645;DHT22;11489;50.834;6.752;2022-07-10T15:23:14;21.60;62.30
22645;DHT22;11489;50.834;6.752;2022-07-10T15:25:41;21.50;62.10
22645;DHT22;11489;50.834;6.752;2022-07-10T15:28:07;21.50;61.80
22645;DHT22;11489;50.834;6.752;2022-07-10T15:30:37;21.40;61.80
22645;DHT22;11489;50.834;6.752;2022-07-10T15:33:04;21.30;61.80
22645;DHT22;11489;50.834;6.752;2022-07-10T15:35:33;21.30;62.20
22645;DHT22;11489;50.834;6.752;2022-07-10T15:37:59;21.20;62.20
22645;DHT22;11489;50.834;6.752;2022-07-10T15:40:28;21.10;62.20
22645;DHT22;11489;50.834;6.752;2022-07-10T15:42:55;21.10;62.40
22645;DHT22;11489;50.834;6.752;2022-07-10T15:45:25;21.00;62.50
22645;DHT22;11489;50.834;6.752;2022-07-10T15:47:50;21.00;62.50
22645;DHT22;11489;50.834;6.752;2022-07-10T15:50:16;20.90;62.80
22645;DHT22;11489;50.834;6.752;2022-07-10T15:52:42;20.90;63.00
22645;DHT22;11489;50.834;6.752;2022-07-10T15:55:08;20.90;63.10
22645;DHT22;11489;50.834;6.752;2022-07-10T15:57:34;20.90;62.60
22645;DHT22;11489;50.834;6.752;2022-07-10T15:59:59;20.90;62.70
22645;DHT22;11489;50.834;6.752;2022-07-10T16:02:25;20.90;62.70
22645;DHT22;11489;50.834;6.752;2022-07-10T16:04:51;20.80;62.70
22645;DHT22;11489;50.834;6.752;2022-07-10T16:07:16;20.80;62.80
22645;DHT22;11489;50.834;6.752;2022-07-10T16:09:42;20.80;62.80